Time,TemperatureF,DewpointF,PressureIn,WindDirection,WindDirectionDegrees,WindSpeedMPH,WindSpeedGustMPH,Humidity,HourlyPrecipIn,Conditions,Clouds,dailyrainin,SolarRadiationWatts/m^2,SoftwareType,DateUTC
2013-07-25 00:22:00,67.0,58.0,-100.00,West,261,3.0,8.0,74,0.00,,,0.00,1.000000,,2013-07-25 04:22:00,
2013-07-25 00:32:00,67.0,58.0,-100.00,West,261,3.0,8.0,74,0.00,,,0.00,1.000000,,2013-07-25 04:32:00,
2013-07-25 00:43:00,67.0,58.0,-100.00,West,261,3.0,8.0,74,0.00,,,0.00,1.000000,,2013-07-25 04:43:00,
2013-07-25 00:51:00,65.0,58.0,-100.00,SSW,200,3.0,7.0,79,0.00,,,0.00,0.000000,,2013-07-25 04:51:00,
2013-07-25 01:22:00,65.0,58.0,-100.00,SSW,200,3.0,7.0,79,0.00,,,0.00,0.000000,,2013-07-25 05:22:00,
2013-07-25 01:32:00,65.0,58.0,-100.00,SSW,200,3.0,7.0,79,0.00,,,0.00,0.000000,,2013-07-25 05:32:00,
2013-07-25 01:43:00,65.0,58.0,-100.00,SSW,200,3.0,7.0,79,0.00,,,0.00,0.000000,,2013-07-25 05:43:00,
2013-07-25 01:51:00,63.0,58.0,-100.00,South,189,3.0,9.0,85,0.00,,,0.00,0.000000,,2013-07-25 05:51:00,
2013-07-25 02:22:00,63.0,58.0,-100.00,South,189,3.0,9.0,85,0.00,,,0.00,0.000000,,2013-07-25 06:22:00,
2013-07-25 02:32:00,63.0,58.0,-100.00,South,189,3.0,9.0,85,0.00,,,0.00,0.000000,,2013-07-25 06:32:00,
2013-07-25 02:42:00,63.0,58.0,-100.00,South,189,3.0,9.0,85,0.00,,,0.00,0.000000,,2013-07-25 06:42:00,
2013-07-25 02:51:00,61.0,60.0,-100.00,SSE,147,5.0,9.0,95,0.00,,,0.00,0.000000,,2013-07-25 06:51:00,
2013-07-25 03:22:00,61.0,60.0,-100.00,SSE,147,5.0,9.0,95,0.00,,,0.00,0.000000,,2013-07-25 07:22:00,
2013-07-25 03:32:00,61.0,60.0,-100.00,SSE,147,5.0,9.0,95,0.00,,,0.00,0.000000,,2013-07-25 07:32:00,
2013-07-25 03:43:00,61.0,60.0,-100.00,SSE,147,5.0,9.0,95,0.00,,,0.00,0.000000,,2013-07-25 07:43:00,
2013-07-25 03:51:00,61.0,60.0,-100.00,SE,135,1.0,8.0,98,0.00,,,0.00,0.000000,,2013-07-25 07:51:00,
2013-07-25 04:12:00,61.0,60.0,-100.00,SE,135,1.0,8.0,98,0.00,,,0.00,0.000000,,2013-07-25 08:12:00,
2013-07-25 04:22:00,61.0,60.0,-100.00,SE,135,1.0,8.0,98,0.00,,,0.00,0.000000,,2013-07-25 08:22:00,
2013-07-25 04:32:00,61.0,60.0,-100.00,SE,135,1.0,8.0,98,0.00,,,0.00,0.000000,,2013-07-25 08:32:00,
2013-07-25 04:44:00,61.0,60.0,-100.00,SE,135,1.0,8.0,98,0.00,,,0.00,0.000000,,2013-07-25 08:44:00,
2013-07-25 04:51:00,61.0,60.0,-100.00,SSW,199,1.0,4.0,98,0.00,,,0.00,0.000000,,2013-07-25 08:51:00,
2013-07-25 05:22:00,61.0,60.0,-100.00,SSW,199,1.0,4.0,98,0.00,,,0.00,0.000000,,2013-07-25 09:22:00,
2013-07-25 05:33:00,61.0,60.0,-100.00,SSW,199,1.0,4.0,98,0.00,,,0.00,0.000000,,2013-07-25 09:33:00,
2013-07-25 05:43:00,61.0,60.0,-100.00,SSW,199,1.0,4.0,98,0.00,,,0.00,0.000000,,2013-07-25 09:43:00,
2013-07-25 05:51:00,61.0,60.0,-100.00,East,80,2.0,4.0,97,0.00,,,0.00,0.000000,,2013-07-25 09:51:00,
2013-07-25 06:22:00,61.0,60.0,-100.00,East,80,2.0,4.0,97,0.00,,,0.00,0.000000,,2013-07-25 10:22:00,
2013-07-25 06:32:00,61.0,60.0,-100.00,East,80,2.0,4.0,97,0.00,,,0.00,0.000000,,2013-07-25 10:32:00,
2013-07-25 06:42:00,61.0,60.0,-100.00,East,80,2.0,4.0,97,0.00,,,0.00,0.000000,,2013-07-25 10:42:00,
2013-07-25 06:51:00,61.0,60.0,-100.00,ENE,67,2.0,5.0,96,0.00,,,0.00,0.000000,,2013-07-25 10:51:00,
2013-07-25 07:22:00,61.0,60.0,-100.00,ENE,67,2.0,5.0,96,0.00,,,0.00,0.000000,,2013-07-25 11:22:00,
2013-07-25 07:32:00,61.0,60.0,-100.00,ENE,67,2.0,5.0,96,0.00,,,0.00,0.000000,,2013-07-25 11:32:00,
2013-07-25 07:43:00,61.0,60.0,-100.00,ENE,67,2.0,5.0,96,0.00,,,0.00,0.000000,,2013-07-25 11:43:00,
2013-07-25 07:51:00,61.0,60.0,-100.00,NE,53,1.0,4.0,95,0.00,,,0.00,0.000000,,2013-07-25 11:51:00,
2013-07-25 08:22:00,61.0,60.0,-100.00,NE,53,1.0,4.0,95,0.00,,,0.00,0.000000,,2013-07-25 12:22:00,
2013-07-25 08:32:00,61.0,60.0,-100.00,NE,53,1.0,4.0,95,0.00,,,0.00,0.000000,,2013-07-25 12:32:00,
2013-07-25 08:44:00,61.0,60.0,-100.00,NE,53,1.0,4.0,95,0.00,,,0.00,0.000000,,2013-07-25 12:44:00,
2013-07-25 08:51:00,61.0,60.0,-100.00,NW,325,2.0,5.0,96,0.00,,,0.00,0.000000,,2013-07-25 12:51:00,
2013-07-25 09:22:00,61.0,60.0,-100.00,NW,325,2.0,5.0,96,0.00,,,0.00,0.000000,,2013-07-25 13:22:00,
2013-07-25 09:32:00,61.0,60.0,-100.00,NW,325,2.0,5.0,96,0.00,,,0.00,0.000000,,2013-07-25 13:32:00,
2013-07-25 09:42:00,61.0,60.0,-100.00,NW,325,2.0,5.0,96,0.00,,,0.00,0.000000,,2013-07-25 13:42:00,
2013-07-25 09:51:00,61.0,60.0,-100.00,ENE,65,2.0,7.0,95,0.00,,,0.00,11.000000,,2013-07-25 13:51:00,
2013-07-25 10:22:00,61.0,60.0,-100.00,ENE,65,2.0,7.0,95,0.00,,,0.00,11.000000,,2013-07-25 14:22:00,
2013-07-25 10:33:00,61.0,60.0,-100.00,ENE,65,2.0,7.0,95,0.00,,,0.00,11.000000,,2013-07-25 14:33:00,
2013-07-25 10:43:00,61.0,60.0,-100.00,ENE,65,2.0,7.0,95,0.00,,,0.00,11.000000,,2013-07-25 14:43:00,
2013-07-25 10:51:00,62.0,60.0,-100.00,SSW,202,2.0,6.0,93,0.00,,,0.00,66.000000,,2013-07-25 14:51:00,
2013-07-25 11:22:00,62.0,60.0,-100.00,SSW,202,2.0,6.0,93,0.00,,,0.00,66.000000,,2013-07-25 15:22:00,
2013-07-25 11:32:00,62.0,60.0,-100.00,SSW,202,2.0,6.0,93,0.00,,,0.00,66.000000,,2013-07-25 15:32:00,
2013-07-25 11:43:00,62.0,60.0,-100.00,SSW,202,2.0,6.0,93,0.00,,,0.00,66.000000,,2013-07-25 15:43:00,
2013-07-25 11:51:00,65.0,60.0,-100.00,NNE,18,2.0,6.0,84,0.00,,,0.00,152.000000,,2013-07-25 15:51:00,
2013-07-25 12:22:00,65.0,60.0,-100.00,NNE,18,2.0,6.0,84,0.00,,,0.00,152.000000,,2013-07-25 16:22:00,
2013-07-25 12:33:00,65.0,60.0,-100.00,NNE,18,2.0,6.0,84,0.00,,,0.00,152.000000,,2013-07-25 16:33:00,
2013-07-25 12:45:00,65.0,60.0,-100.00,NNE,18,2.0,6.0,84,0.00,,,0.00,152.000000,,2013-07-25 16:45:00,
2013-07-25 12:51:00,70.0,60.0,-100.00,West,269,6.0,10.0,71,0.00,,,0.00,555.000000,,2013-07-25 16:51:00,
2013-07-25 13:22:00,70.0,60.0,-100.00,West,269,6.0,10.0,71,0.00,,,0.00,555.000000,,2013-07-25 17:22:00,
2013-07-25 13:32:00,70.0,60.0,-100.00,West,269,6.0,10.0,71,0.00,,,0.00,555.000000,,2013-07-25 17:32:00,
2013-07-25 13:43:00,70.0,60.0,-100.00,West,269,6.0,10.0,71,0.00,,,0.00,555.000000,,2013-07-25 17:43:00,
2013-07-25 13:51:00,74.0,61.0,-100.00,WSW,258,9.0,14.0,65,0.00,,,0.00,718.000000,,2013-07-25 17:51:00,
2013-07-25 14:22:00,74.0,61.0,-100.00,WSW,258,9.0,14.0,65,0.00,,,0.00,718.000000,,2013-07-25 18:22:00,
2013-07-25 14:33:00,74.0,61.0,-100.00,WSW,258,9.0,14.0,65,0.00,,,0.00,718.000000,,2013-07-25 18:33:00,
2013-07-25 14:43:00,74.0,61.0,-100.00,WSW,258,9.0,14.0,65,0.00,,,0.00,718.000000,,2013-07-25 18:43:00,
2013-07-25 14:51:00,77.0,61.0,-100.00,WSW,254,9.0,14.0,57,0.00,,,0.00,835.000000,,2013-07-25 18:51:00,
2013-07-25 15:22:00,77.0,61.0,-100.00,WSW,254,9.0,14.0,57,0.00,,,0.00,835.000000,,2013-07-25 19:22:00,
2013-07-25 15:33:00,77.0,61.0,-100.00,WSW,254,9.0,14.0,57,0.00,,,0.00,835.000000,,2013-07-25 19:33:00,
2013-07-25 15:42:00,77.0,61.0,-100.00,WSW,254,9.0,14.0,57,0.00,,,0.00,835.000000,,2013-07-25 19:42:00,
2013-07-25 15:51:00,80.0,61.0,-100.00,WSW,250,9.0,16.0,52,0.00,,,0.00,924.000000,,2013-07-25 19:51:00,
2013-07-25 16:22:00,80.0,61.0,-100.00,WSW,250,9.0,16.0,52,0.00,,,0.00,924.000000,,2013-07-25 20:22:00,
2013-07-25 16:32:00,80.0,61.0,-100.00,WSW,250,9.0,16.0,52,0.00,,,0.00,924.000000,,2013-07-25 20:32:00,
2013-07-25 16:43:00,80.0,61.0,-100.00,WSW,250,9.0,16.0,52,0.00,,,0.00,924.000000,,2013-07-25 20:43:00,
2013-07-25 16:51:00,80.0,60.0,-100.00,WSW,251,12.0,16.0,50,0.00,,,0.00,793.000000,,2013-07-25 20:51:00,
2013-07-25 17:22:00,80.0,60.0,-100.00,WSW,251,12.0,16.0,50,0.00,,,0.00,793.000000,,2013-07-25 21:22:00,
2013-07-25 17:32:00,80.0,60.0,-100.00,WSW,251,12.0,16.0,50,0.00,,,0.00,793.000000,,2013-07-25 21:32:00,
2013-07-25 17:44:00,80.0,60.0,-100.00,WSW,251,12.0,16.0,50,0.00,,,0.00,793.000000,,2013-07-25 21:44:00,
2013-07-25 17:51:00,80.0,61.0,-100.00,WSW,250,11.0,17.0,52,0.00,,,0.00,894.000000,,2013-07-25 21:51:00,
2013-07-25 18:22:00,80.0,61.0,-100.00,WSW,250,11.0,17.0,52,0.00,,,0.00,894.000000,,2013-07-25 22:22:00,
2013-07-25 18:32:00,80.0,61.0,-100.00,WSW,250,11.0,17.0,52,0.00,,,0.00,894.000000,,2013-07-25 22:32:00,
2013-07-25 18:43:00,80.0,61.0,-100.00,WSW,250,11.0,17.0,52,0.00,,,0.00,894.000000,,2013-07-25 22:43:00,
2013-07-25 18:51:00,80.0,61.0,-100.00,WSW,247,12.0,17.0,53,0.00,,,0.00,778.000000,,2013-07-25 22:51:00,
2013-07-25 19:22:00,80.0,61.0,-100.00,WSW,247,12.0,17.0,53,0.00,,,0.00,778.000000,,2013-07-25 23:22:00,
2013-07-25 19:32:00,80.0,61.0,-100.00,WSW,247,12.0,17.0,53,0.00,,,0.00,778.000000,,2013-07-25 23:32:00,
2013-07-25 19:43:00,80.0,61.0,-100.00,WSW,247,12.0,17.0,53,0.00,,,0.00,778.000000,,2013-07-25 23:43:00,
2013-07-25 19:51:00,79.0,60.0,-100.00,WSW,249,13.0,17.0,53,0.00,,,0.00,630.000000,,2013-07-25 23:51:00,
2013-07-25 20:22:00,79.0,60.0,-100.00,WSW,249,13.0,17.0,53,0.00,,,0.00,630.000000,,2013-07-26 00:22:00,
2013-07-25 20:32:00,79.0,60.0,-100.00,WSW,249,13.0,17.0,53,0.00,,,0.00,630.000000,,2013-07-26 00:32:00,
2013-07-25 20:43:00,79.0,60.0,-100.00,WSW,249,13.0,17.0,53,0.00,,,0.00,630.000000,,2013-07-26 00:43:00,
2013-07-25 20:51:00,76.0,60.0,-100.00,WSW,250,12.0,16.0,58,0.00,,,0.00,450.000000,,2013-07-26 00:51:00,
2013-07-25 21:22:00,76.0,60.0,-100.00,WSW,250,12.0,16.0,58,0.00,,,0.00,450.000000,,2013-07-26 01:22:00,
2013-07-25 21:32:00,76.0,60.0,-100.00,WSW,250,12.0,16.0,58,0.00,,,0.00,450.000000,,2013-07-26 01:32:00,
2013-07-25 21:43:00,76.0,60.0,-100.00,WSW,250,12.0,16.0,58,0.00,,,0.00,450.000000,,2013-07-26 01:43:00,
2013-07-25 22:51:00,69.0,60.0,-100.00,SSW,210,5.0,11.0,73,0.00,,,0.00,85.000000,,2013-07-26 02:51:00,
2013-07-25 23:22:00,69.0,60.0,-100.00,SSW,210,5.0,11.0,73,0.00,,,0.00,85.000000,,2013-07-26 03:22:00,
2013-07-25 23:32:00,69.0,60.0,-100.00,SSW,210,5.0,11.0,73,0.00,,,0.00,85.000000,,2013-07-26 03:32:00,
2013-07-25 23:43:00,69.0,60.0,-100.00,SSW,210,5.0,11.0,73,0.00,,,0.00,85.000000,,2013-07-26 03:43:00,
2013-07-25 23:51:00,65.0,60.0,-100.00,WSW,237,5.0,10.0,85,0.00,,,0.00,1.000000,,2013-07-26 03:51:00,